createdAt,value
2022-07-25T00:01:44.317Z,98617.91
2022-07-25T00:04:12.676Z,98603.41
2022-07-25T00:06:41.845Z,98617.75
2022-07-25T00:09:08.549Z,98608.31
2022-07-25T00:11:35.165Z,98608.13
2022-07-25T00:14:01.756Z,98601.56
2022-07-25T00:16:28.422Z,98606.81
2022-07-25T00:18:55.124Z,98604.56
2022-07-25T00:21:21.849Z,98607.75
2022-07-25T00:23:48.453Z,98600.06
2022-07-25T00:26:15.156Z,98602.69
2022-07-25T00:28:41.826Z,98601.66
2022-07-25T00:31:08.628Z,98592.78
2022-07-25T00:33:36.301Z,98594.28
2022-07-25T00:36:02.972Z,98595.94
2022-07-25T00:38:29.801Z,98589.25
2022-07-25T00:40:56.430Z,98582.75
2022-07-25T00:43:23.250Z,98583.69
2022-07-25T00:45:49.919Z,98582.84
2022-07-25T00:48:16.562Z,98581.16
2022-07-25T00:50:43.269Z,98576.28
2022-07-25T00:53:10.210Z,98575.91
2022-07-25T00:55:37.138Z,98573.88
2022-07-25T00:58:04.153Z,98578.25
2022-07-25T01:00:30.915Z,98568.63
2022-07-25T01:02:57.691Z,98574.03
2022-07-25T01:05:24.426Z,98581.19
2022-07-25T01:07:51.971Z,98571.50
2022-07-25T01:10:18.759Z,98570.09
2022-07-25T01:12:54.357Z,98576.81
2022-07-25T01:15:23.495Z,98576.22
2022-07-25T01:17:50.976Z,98570.16
2022-07-25T01:20:19.428Z,98570.25
2022-07-25T01:22:46.550Z,98574.53
2022-07-25T01:25:14.826Z,98571.44
2022-07-25T01:27:42.244Z,98569.00
2022-07-25T01:30:11.180Z,98578.38
2022-07-25T01:32:38.291Z,98575.00
2022-07-25T01:35:07.121Z,98574.09
2022-07-25T01:37:33.888Z,98568.47
2022-07-25T01:40:00.779Z,98568.63
2022-07-25T01:42:28.204Z,98568.63
2022-07-25T01:44:55.448Z,98565.44
2022-07-25T01:47:22.082Z,98572.53
2022-07-25T01:49:48.769Z,98563.94
2022-07-25T01:52:15.408Z,98568.13
2022-07-25T01:54:42.275Z,98568.81
2022-07-25T01:57:10.534Z,98571.25
2022-07-25T01:59:39.927Z,98567.88
2022-07-25T02:02:07.683Z,98567.28
2022-07-25T02:04:35.893Z,98565.34
2022-07-25T02:07:03.038Z,98569.13
2022-07-25T02:09:29.853Z,98562.91
2022-07-25T02:11:56.641Z,98566.78
2022-07-25T02:14:23.582Z,98561.81
2022-07-25T02:16:50.610Z,98562.06
2022-07-25T02:19:17.422Z,98574.38
2022-07-25T02:21:44.188Z,98558.28
2022-07-25T02:24:10.959Z,98569.66
2022-07-25T02:26:37.609Z,98563.06
2022-07-25T02:29:04.237Z,98562.34
2022-07-25T02:31:30.905Z,98556.66
2022-07-25T02:33:57.641Z,98558.19
2022-07-25T02:36:24.278Z,98562.72
2022-07-25T02:38:51.016Z,98557.59
2022-07-25T02:41:17.713Z,98562.72
2022-07-25T02:43:44.440Z,98556.84
2022-07-25T02:46:11.202Z,98559.63
2022-07-25T02:48:37.954Z,98561.28
2022-07-25T02:51:04.726Z,98554.72
2022-07-25T02:53:55.616Z,98556.66
2022-07-25T02:56:18.252Z,98560.78
2022-07-25T02:58:48.061Z,98561.44
2022-07-25T03:01:14.813Z,98561.91
2022-07-25T03:03:41.557Z,98570.00
2022-07-25T03:06:08.422Z,98560.25
2022-07-25T03:08:35.264Z,98559.94
2022-07-25T03:11:01.894Z,98561.47
2022-07-25T03:13:28.487Z,98560.97
2022-07-25T03:15:55.852Z,98563.50
2022-07-25T03:18:22.487Z,98569.56
2022-07-25T03:20:49.105Z,98563.09
2022-07-25T03:23:15.730Z,98566.78
2022-07-25T03:25:42.375Z,98557.97
2022-07-25T03:28:08.981Z,98563.09
2022-07-25T03:30:35.637Z,98566.41
2022-07-25T03:33:02.289Z,98563.66
2022-07-25T03:35:28.929Z,98571.56
2022-07-25T03:37:55.584Z,98562.72
2022-07-25T03:40:22.345Z,98566.78
2022-07-25T03:42:48.975Z,98568.94
2022-07-25T03:45:16.808Z,98563.03
2022-07-25T03:47:43.484Z,98562.22
2022-07-25T03:50:10.799Z,98573.53
2022-07-25T03:52:38.481Z,98583.72
2022-07-25T03:55:09.876Z,98580.22
2022-07-25T03:57:36.674Z,98576.91
2022-07-25T04:00:06.239Z,98578.28
2022-07-25T04:02:33.447Z,98575.38
2022-07-25T04:05:00.158Z,98574.16
2022-07-25T04:07:26.967Z,98573.41
2022-07-25T04:09:53.598Z,98572.25
2022-07-25T04:12:20.224Z,98568.38
2022-07-25T04:14:46.827Z,98569.47
2022-07-25T04:17:13.625Z,98574.91
2022-07-25T04:19:40.664Z,98568.59
2022-07-25T04:22:07.333Z,98575.69
2022-07-25T04:24:34.069Z,98568.78
2022-07-25T04:27:00.719Z,98564.56
2022-07-25T04:29:27.408Z,98563.25
2022-07-25T04:31:54.040Z,98564.28
2022-07-25T04:34:20.848Z,98563.88
2022-07-25T04:36:47.567Z,98568.16
2022-07-25T04:39:14.148Z,98561.81
2022-07-25T04:41:41.038Z,98555.06
2022-07-25T04:44:08.953Z,98567.63
2022-07-25T04:46:36.179Z,98556.66
2022-07-25T04:49:03.107Z,98565.56
2022-07-25T04:51:29.783Z,98563.31
2022-07-25T04:53:56.424Z,98557.28
2022-07-25T04:56:23.105Z,98558.63
2022-07-25T04:58:49.960Z,98568.06
2022-07-25T05:01:16.900Z,98562.69
2022-07-25T05:03:50.153Z,98565.66
2022-07-25T05:06:18.196Z,98561.63
2022-07-25T05:08:45.072Z,98568.97
2022-07-25T05:11:11.663Z,98566.38
2022-07-25T05:13:38.256Z,98572.78
2022-07-25T05:16:05.403Z,98568.44
2022-07-25T05:18:34.139Z,98560.69
2022-07-25T05:21:00.783Z,98566.31
2022-07-25T05:23:27.500Z,98570.16
2022-07-25T05:25:54.291Z,98569.78
2022-07-25T05:28:20.949Z,98568.84
2022-07-25T05:30:50.192Z,98562.97
2022-07-25T05:33:16.780Z,98565.53
2022-07-25T05:35:43.415Z,98564.78
2022-07-25T05:38:10.039Z,98567.91
2022-07-25T05:40:36.687Z,98558.94
2022-07-25T05:43:03.861Z,98559.38
2022-07-25T05:45:31.342Z,98566.09
2022-07-25T05:47:57.956Z,98561.38
2022-07-25T05:50:24.760Z,98563.59
2022-07-25T05:52:51.488Z,98563.97
2022-07-25T05:55:18.405Z,98564.66
2022-07-25T05:57:45.295Z,98568.34
2022-07-25T06:00:12.481Z,98561.81
2022-07-25T06:02:39.328Z,98559.31
2022-07-25T06:05:06.337Z,98558.06
2022-07-25T06:07:32.979Z,98550.28
2022-07-25T06:09:59.568Z,98552.78
2022-07-25T06:12:26.197Z,98546.28
2022-07-25T06:14:53.106Z,98551.31
2022-07-25T06:17:20.102Z,98545.53
2022-07-25T06:19:46.783Z,98542.16
2022-07-25T06:22:14.438Z,98543.78
2022-07-25T06:24:41.941Z,98536.91
2022-07-25T06:27:09.056Z,98538.75
2022-07-25T06:29:35.730Z,98538.78
2022-07-25T06:32:02.524Z,98539.63
2022-07-25T06:34:29.287Z,98542.00
2022-07-25T06:36:57.767Z,98537.16
2022-07-25T06:39:25.612Z,98550.66
2022-07-25T06:41:52.381Z,98538.72
2022-07-25T06:44:19.199Z,98540.25
2022-07-25T06:46:45.927Z,98535.47
2022-07-25T06:49:12.698Z,98538.78
2022-07-25T06:51:39.471Z,98523.66
2022-07-25T06:54:07.135Z,98530.16
2022-07-25T06:56:34.201Z,98513.91
2022-07-25T06:59:01.006Z,98520.44
2022-07-25T07:01:27.846Z,98512.00
2022-07-25T07:03:54.800Z,98502.59
2022-07-25T07:06:21.461Z,98506.53
2022-07-25T07:08:48.020Z,98512.03
2022-07-25T07:11:15.423Z,98503.31
2022-07-25T07:13:42.442Z,98500.78
2022-07-25T07:16:09.368Z,98501.50
2022-07-25T07:18:36.921Z,98503.34
2022-07-25T07:21:04.524Z,98496.59
2022-07-25T07:23:31.157Z,98504.28
2022-07-25T07:25:59.474Z,98494.94
2022-07-25T07:28:26.187Z,98500.41
2022-07-25T07:31:15.146Z,98496.72
2022-07-25T07:33:39.415Z,98499.09
2022-07-25T07:36:06.251Z,98496.84
2022-07-25T07:38:32.980Z,98494.09
2022-07-25T07:40:59.578Z,98498.28
2022-07-25T07:43:30.063Z,98488.25
2022-07-25T07:46:00.702Z,98476.56
2022-07-25T07:48:29.230Z,98486.66
2022-07-25T07:50:55.999Z,98474.56
2022-07-25T07:53:22.850Z,98477.69
2022-07-25T07:55:55.175Z,98472.91
2022-07-25T07:58:22.059Z,98475.19
2022-07-25T08:00:51.076Z,98466.03
2022-07-25T08:03:19.577Z,98465.09
2022-07-25T08:05:48.525Z,98463.06
2022-07-25T08:08:15.920Z,98459.94
2022-07-25T08:10:44.987Z,98478.47
2022-07-25T08:13:14.591Z,98470.75
2022-07-25T08:15:42.799Z,98469.25
2022-07-25T08:18:17.477Z,98472.19
2022-07-25T08:20:45.886Z,98472.72
2022-07-25T08:23:12.722Z,98463.81
2022-07-25T08:25:40.489Z,98473.75
2022-07-25T08:28:07.613Z,98467.38
2022-07-25T08:30:35.730Z,98461.72
2022-07-25T08:33:04.716Z,98459.19
2022-07-25T08:35:32.930Z,98459.13
2022-07-25T08:38:00.505Z,98456.53
2022-07-25T08:40:29.866Z,98455.97
2022-07-25T08:42:57.047Z,98450.31
2022-07-25T08:45:24.471Z,98445.19
2022-07-25T08:47:52.840Z,98440.19
2022-07-25T08:50:21.775Z,98433.59
2022-07-25T08:52:49.913Z,98442.56
2022-07-25T08:55:20.621Z,98438.38
2022-07-25T08:57:49.484Z,98436.28
2022-07-25T09:00:19.897Z,98436.91
2022-07-25T09:02:54.246Z,98440.44
2022-07-25T09:05:25.053Z,98439.44
2022-07-25T09:07:53.012Z,98427.03
2022-07-25T09:10:25.154Z,98421.34
2022-07-25T09:12:52.321Z,98420.69
2022-07-25T09:15:34.073Z,98418.91
2022-07-25T09:18:09.331Z,98422.19
2022-07-25T09:20:53.201Z,98411.22
2022-07-25T09:23:33.516Z,98410.50
2022-07-25T09:26:03.374Z,98405.47
2022-07-25T09:28:30.220Z,98406.88
2022-07-25T09:31:02.209Z,98407.09
2022-07-25T09:33:29.683Z,98406.78
2022-07-25T09:35:56.845Z,98403.63
2022-07-25T09:38:25.040Z,98400.19
2022-07-25T09:41:00.115Z,98388.28
2022-07-25T09:43:40.854Z,98382.75
2022-07-25T09:46:09.027Z,98386.59
2022-07-25T09:48:37.593Z,98376.84
2022-07-25T09:51:04.630Z,98371.50
2022-07-25T09:53:31.566Z,98368.56
2022-07-25T09:55:58.486Z,98369.69
2022-07-25T09:58:26.778Z,98370.50
2022-07-25T10:01:02.172Z,98370.06
2022-07-25T10:03:50.230Z,98365.97
2022-07-25T10:06:34.754Z,98367.63
2022-07-25T10:09:01.546Z,98362.34
2022-07-25T10:11:29.956Z,98352.59
2022-07-25T10:13:57.176Z,98356.28
2022-07-25T10:16:25.652Z,98355.69
2022-07-25T10:18:58.369Z,98347.28
2022-07-25T10:21:28.349Z,98348.78
2022-07-25T10:24:04.232Z,98336.44
2022-07-25T10:26:32.026Z,98334.59
2022-07-25T10:28:59.041Z,98333.94
2022-07-25T10:31:37.713Z,98322.91
2022-07-25T10:34:06.905Z,98319.53
2022-07-25T10:36:51.145Z,98317.84
2022-07-25T10:39:19.483Z,98309.84
2022-07-25T10:42:02.904Z,98308.91
2022-07-25T10:44:50.173Z,98301.94
2022-07-25T10:47:18.225Z,98298.41
2022-07-25T10:50:14.544Z,98294.41
2022-07-25T10:52:42.592Z,98290.69
2022-07-25T10:55:09.477Z,98292.88
2022-07-25T10:57:45.116Z,98283.97
2022-07-25T11:00:21.809Z,98287.53
2022-07-25T11:02:50.209Z,98276.22
2022-07-25T11:05:16.950Z,98281.66
2022-07-25T11:08:18.823Z,98273.28
2022-07-25T11:10:39.303Z,98269.66
2022-07-25T11:13:10.385Z,98266.81
2022-07-25T11:15:37.167Z,98261.13
2022-07-25T11:18:04.291Z,98257.44
2022-07-25T11:20:30.943Z,98257.81
2022-07-25T11:22:57.571Z,98251.84
2022-07-25T11:25:24.191Z,98246.50
2022-07-25T11:27:58.098Z,98240.19
2022-07-25T11:30:25.153Z,98241.09
2022-07-25T11:33:01.400Z,98241.34
2022-07-25T11:35:33.316Z,98228.94
2022-07-25T11:38:02.501Z,98223.47
2022-07-25T11:40:31.539Z,98230.09
2022-07-25T11:42:59.751Z,98225.66
2022-07-25T11:45:37.298Z,98222.28
2022-07-25T11:48:04.638Z,98214.41
2022-07-25T11:50:32.767Z,98216.56
2022-07-25T11:53:01.368Z,98220.09
2022-07-25T11:55:31.043Z,98220.09
2022-07-25T11:57:59.649Z,98202.75
2022-07-25T12:00:26.551Z,98209.03
2022-07-25T12:02:53.487Z,98210.56
2022-07-25T12:05:23.106Z,98208.81
2022-07-25T12:07:50.839Z,98204.72
2022-07-25T12:10:23.635Z,98200.78
2022-07-25T12:13:04.298Z,98193.13
2022-07-25T12:15:41.909Z,98191.28
2022-07-25T12:18:10.637Z,98190.50
2022-07-25T12:20:43.144Z,98186.34
2022-07-25T12:23:12.440Z,98170.34
2022-07-25T12:25:45.981Z,98178.03
2022-07-25T12:28:12.938Z,98174.56
2022-07-25T12:30:41.501Z,98164.28
2022-07-25T12:33:08.951Z,98157.47
2022-07-25T12:35:37.442Z,98152.50
2022-07-25T12:38:04.511Z,98155.06
2022-07-25T12:40:31.236Z,98146.19
2022-07-25T12:42:58.921Z,98151.88
2022-07-25T12:45:25.838Z,98146.84
2022-07-25T12:47:52.406Z,98144.16
2022-07-25T12:50:19.466Z,98134.19
2022-07-25T12:52:47.210Z,98129.75
2022-07-25T12:55:17.279Z,98137.19
2022-07-25T12:57:44.890Z,98132.69
2022-07-25T13:00:14.892Z,98135.88
2022-07-25T13:02:41.802Z,98120.13
2022-07-25T13:05:08.864Z,98125.03
2022-07-25T13:07:35.494Z,98124.34
2022-07-25T13:10:03.784Z,98113.69
2022-07-25T13:12:30.548Z,98105.56
2022-07-25T13:14:57.271Z,98097.28
2022-07-25T13:17:27.501Z,98107.53
2022-07-25T13:19:55.222Z,98108.94
2022-07-25T13:22:21.861Z,98098.16
2022-07-25T13:24:48.489Z,98094.41
2022-07-25T13:27:21.521Z,98086.31
2022-07-25T13:29:53.962Z,98084.47
2022-07-25T13:32:21.762Z,98077.03
2022-07-25T13:34:49.443Z,98074.34
2022-07-25T13:37:16.134Z,98074.56
2022-07-25T13:39:42.855Z,98072.06
2022-07-25T13:42:09.863Z,98063.81
2022-07-25T13:44:36.579Z,98065.41
2022-07-25T13:47:03.325Z,98059.69
2022-07-25T13:49:31.821Z,98059.03
2022-07-25T13:51:58.476Z,98053.19
2022-07-25T13:54:25.067Z,98054.63
2022-07-25T13:56:51.794Z,98049.66
2022-07-25T13:59:21.428Z,98038.00
2022-07-25T14:01:49.124Z,98033.97
2022-07-25T14:04:16.825Z,98036.72
2022-07-25T14:06:43.764Z,98023.56
2022-07-25T14:09:10.799Z,98013.94
2022-07-25T14:11:37.637Z,98015.75
2022-07-25T14:14:04.252Z,98014.91
2022-07-25T14:16:31.046Z,98014.06
2022-07-25T14:18:57.764Z,98021.38
2022-07-25T14:21:24.377Z,98011.50
2022-07-25T14:23:52.188Z,98012.28
2022-07-25T14:26:18.834Z,98007.53
2022-07-25T14:28:45.468Z,97999.28
2022-07-25T14:31:12.236Z,97998.28
2022-07-25T14:33:40.176Z,97998.75
2022-07-25T14:36:10.845Z,97997.94
2022-07-25T14:38:37.488Z,97988.09
2022-07-25T14:41:09.147Z,97995.28
2022-07-25T14:43:38.919Z,97987.47
2022-07-25T14:46:08.036Z,97986.63
2022-07-25T14:48:37.458Z,97987.03
2022-07-25T14:51:05.146Z,97981.88
2022-07-25T14:53:32.502Z,97980.69
2022-07-25T14:56:00.891Z,97979.84
2022-07-25T14:58:27.563Z,97977.38
2022-07-25T15:00:54.213Z,97976.53
2022-07-25T15:03:21.102Z,97974.91
2022-07-25T15:05:47.859Z,97974.91
2022-07-25T15:08:14.551Z,97967.53
2022-07-25T15:10:41.404Z,97966.31
2022-07-25T15:13:30.124Z,97974.34
2022-07-25T15:15:56.190Z,97964.47
2022-07-25T15:18:22.875Z,97961.13
2022-07-25T15:20:49.501Z,97958.84
2022-07-25T15:23:16.109Z,97955.16
2022-07-25T15:26:01.115Z,97953.28
2022-07-25T15:28:29.119Z,97946.47
2022-07-25T15:30:55.875Z,97946.69
2022-07-25T15:33:22.566Z,97945.03
2022-07-25T15:35:49.234Z,97949.75
2022-07-25T15:38:16.150Z,97941.09
2022-07-25T15:40:46.295Z,97936.16
2022-07-25T15:43:13.216Z,97940.88
2022-07-25T15:45:45.986Z,97933.50
2022-07-25T15:48:14.971Z,97939.47
2022-07-25T15:50:46.668Z,97931.44
2022-07-25T15:53:14.295Z,97925.28
2022-07-25T15:55:42.062Z,97923.41
2022-07-25T15:58:10.158Z,97922.78
2022-07-25T16:00:37.376Z,97925.47
2022-07-25T16:03:04.348Z,97920.53
2022-07-25T16:05:31.301Z,97920.94
2022-07-25T16:08:01.004Z,97918.06
2022-07-25T16:10:28.861Z,97915.56
2022-07-25T16:12:55.532Z,97921.72
2022-07-25T16:15:22.259Z,97917.59
2022-07-25T16:17:50.705Z,97914.50
2022-07-25T16:20:17.346Z,97918.38
2022-07-25T16:22:44.099Z,97914.25
2022-07-25T16:25:10.874Z,97911.56
2022-07-25T16:27:37.719Z,97906.38
2022-07-25T16:30:05.213Z,97910.00
2022-07-25T16:32:31.842Z,97909.75
2022-07-25T16:34:58.430Z,97909.16
2022-07-25T16:37:25.081Z,97909.56
2022-07-25T16:39:51.678Z,97907.72
2022-07-25T16:42:18.428Z,97906.69
2022-07-25T16:44:45.099Z,97903.25
2022-07-25T16:47:11.793Z,97903.03
2022-07-25T16:49:38.534Z,97910.03
2022-07-25T16:52:05.374Z,97903.47
2022-07-25T16:54:33.166Z,97901.00
2022-07-25T16:57:00.035Z,97897.69
2022-07-25T16:59:26.900Z,97895.03
2022-07-25T17:01:54.034Z,97904.66
2022-07-25T17:04:21.001Z,97898.84
2022-07-25T17:06:47.740Z,97904.94
2022-07-25T17:09:14.515Z,97900.34
2022-07-25T17:11:41.175Z,97889.59
2022-07-25T17:14:07.985Z,97886.50
2022-07-25T17:16:34.711Z,97887.75
2022-07-25T17:19:03.057Z,97895.38
2022-07-25T17:21:29.730Z,97890.97
2022-07-25T17:23:56.599Z,97899.75
2022-07-25T17:26:23.501Z,97889.56
2022-07-25T17:28:50.137Z,97885.63
2022-07-25T17:31:16.909Z,97887.47
2022-07-25T17:33:43.527Z,97895.53
2022-07-25T17:36:10.204Z,97892.81
2022-07-25T17:38:37.783Z,97891.13
2022-07-25T17:41:05.107Z,97884.84
2022-07-25T17:43:31.907Z,97888.34
2022-07-25T17:45:58.564Z,97882.72
2022-07-25T17:48:25.186Z,97891.56
2022-07-25T17:50:52.539Z,97885.63
2022-07-25T17:53:19.440Z,97881.56
2022-07-25T17:55:46.112Z,97868.72
2022-07-25T17:58:12.743Z,97866.25
2022-07-25T18:00:40.050Z,97862.03
2022-07-25T18:03:07.436Z,97862.34
2022-07-25T18:05:34.347Z,97867.66
2022-07-25T18:08:03.071Z,97858.56
2022-07-25T18:10:30.472Z,97853.16
2022-07-25T18:13:00.224Z,97861.69
2022-07-25T18:15:27.122Z,97852.97
2022-07-25T18:17:54.123Z,97848.84
2022-07-25T18:20:20.799Z,97848.19
2022-07-25T18:22:47.494Z,97845.63
2022-07-25T18:25:14.758Z,97843.03
2022-07-25T18:27:43.411Z,97836.53
2022-07-25T18:30:11.619Z,97840.97
2022-07-25T18:32:38.941Z,97835.00
2022-07-25T18:35:06.788Z,97829.41
2022-07-25T18:37:33.810Z,97825.50
2022-07-25T18:40:00.508Z,97830.53
2022-07-25T18:42:29.941Z,97834.66
2022-07-25T18:44:57.425Z,97843.59
2022-07-25T18:47:26.494Z,97836.19
2022-07-25T18:49:58.970Z,97831.72
2022-07-25T18:52:25.745Z,97834.28
2022-07-25T18:54:52.438Z,97841.16
2022-07-25T18:57:19.098Z,97844.97
2022-07-25T18:59:45.803Z,97840.56
2022-07-25T19:02:12.569Z,97832.47
2022-07-25T19:04:39.302Z,97841.16
2022-07-25T19:07:07.110Z,97833.38
2022-07-25T19:09:33.778Z,97849.81
2022-07-25T19:12:01.275Z,97839.22
2022-07-25T19:14:28.783Z,97845.81
2022-07-25T19:16:55.516Z,97842.06
2022-07-25T19:19:22.213Z,97839.25
2022-07-25T19:21:48.975Z,97845.06
2022-07-25T19:24:16.038Z,97841.78
2022-07-25T19:26:42.895Z,97844.75
2022-07-25T19:29:16.503Z,97852.56
2022-07-25T19:31:43.617Z,97842.50
2022-07-25T19:34:11.222Z,97846.69
2022-07-25T19:36:38.443Z,97845.69
2022-07-25T19:39:06.297Z,97847.69
2022-07-25T19:41:33.545Z,97850.50
2022-07-25T19:44:00.260Z,97847.84
2022-07-25T19:46:31.295Z,97850.19
2022-07-25T19:48:58.227Z,97853.84
2022-07-25T19:51:25.046Z,97849.69
2022-07-25T19:53:51.727Z,97849.50
2022-07-25T19:56:18.300Z,97847.53
2022-07-25T19:58:45.226Z,97850.84
2022-07-25T20:01:12.817Z,97853.81
2022-07-25T20:03:40.316Z,97847.38
2022-07-25T20:06:08.530Z,97843.84
2022-07-25T20:08:37.230Z,97836.56
2022-07-25T20:11:04.002Z,97844.69
2022-07-25T20:13:31.070Z,97847.47
2022-07-25T20:15:58.630Z,97841.19
2022-07-25T20:18:25.426Z,97842.50
2022-07-25T20:20:52.046Z,97846.16
2022-07-25T20:23:18.740Z,97855.25
2022-07-25T20:25:45.419Z,97843.00
2022-07-25T20:28:12.375Z,97841.81
2022-07-25T20:30:39.486Z,97842.16
2022-07-25T20:33:09.008Z,97835.53
2022-07-25T20:35:37.400Z,97838.34
2022-07-25T20:38:09.203Z,97839.50
2022-07-25T20:40:46.345Z,97837.00
2022-07-25T20:43:13.344Z,97839.66
2022-07-25T20:45:40.069Z,97838.19
2022-07-25T20:48:07.090Z,97843.47
2022-07-25T20:50:37.236Z,97852.72
2022-07-25T20:53:06.085Z,97851.88
2022-07-25T20:55:33.597Z,97848.44
2022-07-25T20:58:00.865Z,97846.06
2022-07-25T21:00:30.343Z,97842.91
2022-07-25T21:02:58.484Z,97844.91
2022-07-25T21:05:26.106Z,97840.94
2022-07-25T21:07:53.118Z,97838.44
2022-07-25T21:10:20.031Z,97848.19
2022-07-25T21:12:46.974Z,97842.25
2022-07-25T21:15:14.540Z,97841.38
2022-07-25T21:17:41.766Z,97836.41
2022-07-25T21:20:13.454Z,97838.38
2022-07-25T21:22:40.826Z,97837.69
2022-07-25T21:25:08.252Z,97840.81
2022-07-25T21:27:35.151Z,97842.09
2022-07-25T21:30:02.321Z,97835.94
2022-07-25T21:32:28.974Z,97829.16
2022-07-25T21:34:55.658Z,97823.53
2022-07-25T21:37:22.388Z,97827.13
2022-07-25T21:39:49.083Z,97825.34
2022-07-25T21:42:15.829Z,97827.97
2022-07-25T21:44:44.274Z,97823.53
2022-07-25T21:47:12.053Z,97823.00
2022-07-25T21:49:57.551Z,97818.03
2022-07-25T21:52:26.590Z,97818.72
2022-07-25T21:54:57.138Z,97818.97
2022-07-25T21:57:23.794Z,97828.19
2022-07-25T21:59:50.420Z,97823.09
2022-07-25T22:02:18.222Z,97815.56
2022-07-25T22:04:44.810Z,97821.72
2022-07-25T22:07:11.446Z,97811.69
2022-07-25T22:09:38.158Z,97816.09
2022-07-25T22:12:05.025Z,97802.16
2022-07-25T22:14:31.611Z,97809.00
2022-07-25T22:16:58.334Z,97809.75
2022-07-25T22:19:25.134Z,97817.34
2022-07-25T22:21:51.791Z,97815.88
2022-07-25T22:24:18.378Z,97811.91
2022-07-25T22:26:45.145Z,97811.41
2022-07-25T22:29:12.231Z,97811.41
2022-07-25T22:31:39.395Z,97814.31
2022-07-25T22:34:06.325Z,97812.22
2022-07-25T22:36:33.070Z,97817.22
2022-07-25T22:38:59.666Z,97811.53
2022-07-25T22:41:26.316Z,97808.88
2022-07-25T22:43:58.736Z,97816.88
2022-07-25T22:46:29.468Z,97820.31
2022-07-25T22:48:57.450Z,97820.72
2022-07-25T22:51:24.833Z,97822.09
2022-07-25T22:53:51.595Z,97824.19
2022-07-25T22:56:18.597Z,97822.09
2022-07-25T22:58:45.757Z,97818.34
2022-07-25T23:01:16.158Z,97814.44
2022-07-25T23:03:42.928Z,97815.13
2022-07-25T23:06:09.947Z,97817.94
2022-07-25T23:08:36.648Z,97826.31
2022-07-25T23:11:05.913Z,97821.34
2022-07-25T23:13:33.553Z,97824.56
2022-07-25T23:16:00.272Z,97825.69
2022-07-25T23:18:28.572Z,97826.66
2022-07-25T23:20:55.270Z,97825.25
2022-07-25T23:23:21.855Z,97832.09
2022-07-25T23:25:48.521Z,97830.84
2022-07-25T23:28:15.156Z,97829.19
2022-07-25T23:30:41.778Z,97829.19
2022-07-25T23:33:08.711Z,97824.56
2022-07-25T23:35:35.565Z,97824.47
2022-07-25T23:38:02.747Z,97820.19
2022-07-25T23:40:29.581Z,97820.34
2022-07-25T23:42:56.395Z,97816.59
2022-07-25T23:45:25.441Z,97825.31
2022-07-25T23:47:55.518Z,97818.38
2022-07-25T23:50:23.046Z,97819.63
2022-07-25T23:52:50.047Z,97824.47
2022-07-25T23:55:16.723Z,97813.38
2022-07-25T23:57:43.323Z,97807.59
